Time;durP1;ratioP1;P1;durP2;ratioP2;P2;SDS_P1;SDS_P2;PMS_P1;PMS_P2;Temp;Humidity;BMP_temperature;BMP_pressure;BME280_temperature;BME280_humidity;BME280_pressure;Samples;Min_cycle;Max_cycle;Signal;HPM_P1;HPM_P2
2021/10/20 00:01:37;;;;;;;2.43;2.30;;;;;;;14.96;100.00;100832.59;5054821;28;20438;-70
2021/10/20 00:04:03;;;;;;;0.40;0.30;;;;;;;14.94;100.00;100832.91;5054473;28;20820;-70
2021/10/20 00:06:30;;;;;;;0.40;0.20;;;;;;;14.89;100.00;100831.16;5054657;28;20516;-70
2021/10/20 00:08:57;;;;;;;0.40;0.20;;;;;;;14.91;100.00;100830.03;5054923;28;20438;-70
2021/10/20 00:11:24;;;;;;;0.40;0.30;;;;;;;14.92;100.00;100828.91;5054572;28;20473;-70
2021/10/20 00:13:51;;;;;;;0.40;0.30;;;;;;;14.89;100.00;100822.97;5054287;28;20824;-70
2021/10/20 00:16:19;;;;;;;0.40;0.30;;;;;;;14.91;100.00;100821.84;5054472;28;20438;-70
2021/10/20 00:18:48;;;;;;;0.40;0.30;;;;;;;14.89;100.00;100820.25;5054204;28;20490;-70
2021/10/20 00:21:19;;;;;;;0.40;0.30;;;;;;;14.80;100.00;100822.19;5054735;28;20446;-69
2021/10/20 00:23:45;;;;;;;0.40;0.30;;;;;;;14.72;100.00;100811.31;5054418;28;20435;-69
2021/10/20 00:26:12;;;;;;;0.40;0.30;;;;;;;14.72;100.00;100805.84;5054262;28;20434;-70
2021/10/20 00:28:38;;;;;;;0.40;0.30;;;;;;;14.68;100.00;100805.69;5054334;28;20442;-70
2021/10/20 00:31:05;;;;;;;0.40;0.20;;;;;;;14.68;100.00;100797.50;5053919;28;20939;-69
2021/10/20 00:33:31;;;;;;;0.40;0.27;;;;;;;14.71;100.00;100783.25;5054029;28;20828;-70
2021/10/20 00:35:59;;;;;;;0.40;0.20;;;;;;;14.69;100.00;100788.19;5054189;28;20442;-70
2021/10/20 00:38:26;;;;;;;0.40;0.30;;;;;;;14.69;100.00;100787.41;5054037;28;20438;-70
2021/10/20 00:40:53;;;;;;;0.40;0.20;;;;;;;14.66;100.00;100780.69;5054099;28;20449;-70
2021/10/20 00:43:20;;;;;;;0.40;0.20;;;;;;;14.70;100.00;100780.81;5054070;28;20827;-69
2021/10/20 00:45:47;;;;;;;0.40;0.20;;;;;;;14.70;100.00;100768.00;5054003;28;20508;-70
2021/10/20 00:48:14;;;;;;;0.40;0.30;;;;;;;14.69;100.00;100774.56;5053540;28;20477;-70
2021/10/20 00:50:41;;;;;;;0.40;0.30;;;;;;;14.72;100.00;100763.03;5053886;28;20446;-70
2021/10/20 00:53:09;;;;;;;0.40;0.30;;;;;;;14.75;100.00;100754.19;5053886;28;20464;-69
2021/10/20 00:55:36;;;;;;;0.40;0.30;;;;;;;14.77;100.00;100754.66;5053811;28;20449;-69
2021/10/20 00:58:03;;;;;;;0.40;0.30;;;;;;;14.78;100.00;100741.81;5053678;28;20462;-69
2021/10/20 01:00:30;;;;;;;0.40;0.20;;;;;;;14.76;100.00;100739.44;5053639;28;20490;-69
2021/10/20 01:02:56;;;;;;;0.40;0.20;;;;;;;14.71;100.00;100736.88;5053646;28;20445;-70
2021/10/20 01:05:23;;;;;;;0.40;0.20;;;;;;;14.75;100.00;100739.78;5053628;28;20449;-70
2021/10/20 01:07:50;;;;;;;0.40;0.27;;;;;;;14.77;100.00;100741.03;5053493;28;20466;-70
2021/10/20 01:10:18;;;;;;;0.40;0.20;;;;;;;14.76;100.00;100733.97;5053587;28;20442;-70
2021/10/20 01:12:45;;;;;;;0.40;0.30;;;;;;;14.79;100.00;100733.34;5053568;28;20446;-70
2021/10/20 01:15:13;;;;;;;0.40;0.20;;;;;;;14.77;100.00;100723.88;5053495;28;20450;-70
2021/10/20 01:17:39;;;;;;;0.50;0.40;;;;;;;14.83;100.00;100733.47;5053350;28;20462;-70
2021/10/20 01:20:06;;;;;;;0.40;0.30;;;;;;;14.81;100.00;100722.91;5053048;28;20509;-70
2021/10/20 01:22:35;;;;;;;0.40;0.20;;;;;;;14.80;100.00;100717.78;5053615;28;20438;-70
2021/10/20 01:25:02;;;;;;;0.40;0.20;;;;;;;14.77;100.00;100716.50;5053362;28;20442;-69
2021/10/20 01:27:29;;;;;;;0.40;0.30;;;;;;;14.80;100.00;100717.78;5053017;28;20478;-70
2021/10/20 01:29:57;;;;;;;0.40;0.20;;;;;;;14.80;100.00;100718.56;5053289;28;20503;-70
2021/10/20 01:32:26;;;;;;;0.40;0.30;;;;;;;14.70;100.00;100705.31;5052918;28;20445;-69
2021/10/20 01:34:53;;;;;;;0.40;0.30;;;;;;;14.67;100.00;100699.69;5053013;28;20990;-70
2021/10/20 01:37:21;;;;;;;0.40;0.30;;;;;;;14.63;100.00;100703.06;5053387;28;20473;-70
2021/10/20 01:39:49;;;;;;;0.40;0.20;;;;;;;14.63;100.00;100705.78;5053059;28;20482;-70
2021/10/20 01:42:15;;;;;;;0.40;0.30;;;;;;;14.63;100.00;100697.59;5052765;28;20943;-69
2021/10/20 01:44:42;;;;;;;0.40;0.20;;;;;;;14.64;100.00;100691.03;5052825;28;20446;-69
2021/10/20 01:47:09;;;;;;;0.40;0.30;;;;;;;14.62;100.00;100687.84;5052997;28;20569;-70
2021/10/20 01:49:35;;;;;;;0.40;0.20;;;;;;;14.63;100.00;100681.25;5053022;28;20438;-69
2021/10/20 01:52:02;;;;;;;0.40;0.20;;;;;;;14.68;100.00;100680.28;5053036;28;20449;-69
2021/10/20 01:54:28;;;;;;;0.40;0.20;;;;;;;14.67;100.00;100678.69;5052989;28;20450;-69
2021/10/20 01:56:56;;;;;;;0.40;0.20;;;;;;;14.67;100.00;100683.34;5052956;28;20462;-70
2021/10/20 01:59:22;;;;;;;0.40;0.20;;;;;;;14.63;100.00;100661.38;5052894;28;20552;-70
2021/10/20 02:01:49;;;;;;;0.40;0.33;;;;;;;14.61;100.00;100658.97;5052699;28;20441;-70
2021/10/20 02:04:16;;;;;;;0.40;0.30;;;;;;;14.57;100.00;100658.03;5053031;28;20472;-70
2021/10/20 02:06:43;;;;;;;0.40;0.30;;;;;;;14.59;100.00;100653.03;5052883;28;20458;-69
2021/10/20 02:09:11;;;;;;;1.00;1.00;;;;;;;14.58;100.00;100640.53;5052913;28;20434;-70
2021/10/20 02:11:39;;;;;;;0.40;0.27;;;;;;;14.56;100.00;100647.44;5052901;28;20442;-69
2021/10/20 02:14:08;;;;;;;0.40;0.30;;;;;;;14.55;100.00;100648.56;5052917;28;20493;-69
2021/10/20 02:16:34;;;;;;;0.40;0.30;;;;;;;14.57;100.00;100649.06;5052721;28;20473;-69
2021/10/20 02:19:02;;;;;;;0.40;0.30;;;;;;;14.55;100.00;100648.56;5052557;28;20465;-70
2021/10/20 02:21:28;;;;;;;0.40;0.30;;;;;;;14.55;100.00;100645.84;5052813;28;20430;-69
2021/10/20 02:23:55;;;;;;;0.40;0.20;;;;;;;14.56;100.00;100639.25;5052752;28;20446;-69
2021/10/20 02:26:21;;;;;;;0.40;0.30;;;;;;;14.54;100.00;100628.69;5052710;28;20473;-70
2021/10/20 02:28:54;;;;;;;0.40;0.30;;;;;;;14.51;100.00;100636.72;5052710;28;20442;-69
2021/10/20 02:31:21;;;;;;;0.40;0.30;;;;;;;14.45;100.00;100629.81;5052675;28;20438;-70
2021/10/20 02:33:48;;;;;;;0.40;0.23;;;;;;;14.37;100.00;100620.53;5052675;28;20465;-69
2021/10/20 02:36:14;;;;;;;1.17;1.17;;;;;;;14.35;100.00;100626.31;5052589;28;20442;-69
2021/10/20 02:38:41;;;;;;;0.40;0.30;;;;;;;14.38;100.00;100614.75;5052662;28;20449;-69
2021/10/20 02:41:07;;;;;;;0.40;0.20;;;;;;;14.34;100.00;100613.84;5052236;28;20477;-70
2021/10/20 02:43:36;;;;;;;0.40;0.20;;;;;;;14.34;100.00;100607.56;5052611;28;20499;-70
2021/10/20 02:46:03;;;;;;;0.40;0.30;;;;;;;14.31;100.00;100614.47;5052498;28;20450;-69
2021/10/20 02:48:32;;;;;;;0.40;0.20;;;;;;;14.30;100.00;100606.63;5052219;28;20958;-70
2021/10/20 02:50:58;;;;;;;0.40;0.20;;;;;;;14.28;100.00;100604.22;5052500;28;20499;-69
2021/10/20 02:53:25;;;;;;;0.40;0.30;;;;;;;14.26;100.00;100601.03;5052474;28;20449;-69
2021/10/20 02:55:51;;;;;;;0.40;0.30;;;;;;;14.28;100.00;100608.88;5052502;28;20445;-70
2021/10/20 02:58:18;;;;;;;0.40;0.30;;;;;;;14.27;100.00;100599.91;5055502;28;20474;-70
2021/10/20 03:00:44;;;;;;;0.40;0.30;;;;;;;14.23;100.00;100593.50;5055973;28;20893;-70
2021/10/20 03:03:10;;;;;;;0.40;0.20;;;;;;;14.24;100.00;100595.09;5056003;28;20491;-70
2021/10/20 03:05:38;;;;;;;0.40;0.30;;;;;;;14.27;100.00;100586.28;5055896;28;20453;-70
2021/10/20 03:08:05;;;;;;;0.40;0.30;;;;;;;14.28;100.00;100598.75;5055818;28;20470;-70
2021/10/20 03:10:31;;;;;;;0.40;0.30;;;;;;;14.28;100.00;100592.53;5055854;28;20827;-69
2021/10/20 03:12:58;;;;;;;0.40;0.23;;;;;;;14.24;100.00;100589.63;5055518;28;20928;-70
2021/10/20 03:15:24;;;;;;;0.40;0.30;;;;;;;14.18;100.00;100593.69;5055704;28;20441;-69
2021/10/20 03:17:51;;;;;;;0.40;0.27;;;;;;;14.17;100.00;100589.34;5055807;28;20467;-70
2021/10/20 03:20:17;;;;;;;0.40;0.30;;;;;;;14.14;100.00;100590.00;5055205;28;20497;-70
2021/10/20 03:22:46;;;;;;;0.40;0.30;;;;;;;14.16;100.00;100584.22;5055610;28;20435;-70
2021/10/20 03:25:14;;;;;;;0.40;0.30;;;;;;;14.15;100.00;100577.97;5055788;28;20438;-70
2021/10/20 03:27:42;;;;;;;0.40;0.30;;;;;;;14.11;100.00;100585.19;5055131;28;21006;-69
2021/10/20 03:30:09;;;;;;;0.40;0.30;;;;;;;14.09;100.00;100582.00;5055448;28;20446;-70
2021/10/20 03:32:36;;;;;;;0.40;0.20;;;;;;;14.07;100.00;100573.34;5055387;28;20446;-70
2021/10/20 03:35:02;;;;;;;0.40;0.30;;;;;;;14.06;100.00;100575.28;5055365;28;20445;-70
2021/10/20 03:37:29;;;;;;;0.40;0.30;;;;;;;14.02;100.00;100573.53;5055231;28;20462;-69
2021/10/20 03:39:56;;;;;;;0.40;0.30;;;;;;;14.01;100.00;100574.66;5055213;28;20509;-70
2021/10/20 03:42:23;;;;;;;0.40;0.30;;;;;;;14.01;100.00;100569.19;5055239;28;20477;-70
2021/10/20 03:44:51;;;;;;;0.40;0.30;;;;;;;13.98;100.00;100564.41;5055182;28;20445;-70
2021/10/20 03:47:19;;;;;;;0.40;0.30;;;;;;;14.03;100.00;100562.31;5055021;28;20501;-70
2021/10/20 03:49:45;;;;;;;0.40;0.30;;;;;;;13.99;100.00;100560.53;5055021;28;20446;-70
2021/10/20 03:52:12;;;;;;;0.40;0.30;;;;;;;14.04;100.00;100558.47;5055028;28;20449;-70
2021/10/20 03:54:38;;;;;;;0.40;0.30;;;;;;;14.02;100.00;100559.91;5054999;28;20819;-70
2021/10/20 03:57:06;;;;;;;0.40;0.30;;;;;;;14.01;100.00;100561.03;5054854;28;20489;-70
2021/10/20 03:59:33;;;;;;;0.40;0.30;;;;;;;14.02;100.00;100559.91;5054828;28;20454;-70
2021/10/20 04:01:59;;;;;;;0.40;0.20;;;;;;;14.04;100.00;100561.19;5054881;28;20461;-70
2021/10/20 04:04:25;;;;;;;0.80;0.80;;;;;;;14.07;100.00;100554.28;5054444;28;20792;-69
2021/10/20 04:06:52;;;;;;;0.40;0.30;;;;;;;14.10;100.00;100553.63;5054674;28;20865;-70
2021/10/20 04:09:19;;;;;;;0.40;0.30;;;;;;;14.08;100.00;100555.91;5054459;28;20453;-70
2021/10/20 04:11:45;;;;;;;0.40;0.30;;;;;;;14.07;100.00;100543.38;5054724;28;20445;-69
2021/10/20 04:14:13;;;;;;;0.40;0.20;;;;;;;14.07;100.00;100551.56;5054475;28;20446;-70
2021/10/20 04:16:39;;;;;;;0.50;0.40;;;;;;;14.06;100.00;100549.97;5054518;28;20465;-69
2021/10/20 04:19:06;;;;;;;0.40;0.30;;;;;;;14.04;100.00;100557.66;5054334;28;20473;-70
2021/10/20 04:21:32;;;;;;;0.40;0.30;;;;;;;14.00;100.00;100545.81;5054379;28;20489;-69
2021/10/20 04:23:59;;;;;;;0.40;0.20;;;;;;;13.99;100.00;100536.03;5054441;28;20449;-70
2021/10/20 04:26:25;;;;;;;0.40;0.30;;;;;;;13.94;100.00;100530.75;5054304;28;20477;-70
2021/10/20 04:28:51;;;;;;;0.40;0.30;;;;;;;13.89;100.00;100527.09;5054401;28;20863;-70
2021/10/20 04:31:19;;;;;;;0.40;0.20;;;;;;;13.81;100.00;100517.03;5054227;28;20434;-69
2021/10/20 04:33:46;;;;;;;0.40;0.30;;;;;;;13.76;100.00;100519.13;5054215;28;20453;-69
2021/10/20 04:36:12;;;;;;;0.40;0.30;;;;;;;13.72;100.00;100510.00;5054158;28;20450;-70
2021/10/20 04:38:39;;;;;;;0.40;0.30;;;;;;;13.66;100.00;100498.50;5053852;28;20947;-70
2021/10/20 04:41:05;;;;;;;0.40;0.30;;;;;;;13.72;100.00;100499.09;5054052;28;20489;-69
2021/10/20 04:43:31;;;;;;;0.40;0.30;;;;;;;13.74;100.00;100496.88;5054080;28;20446;-70
2021/10/20 04:45:58;;;;;;;0.40;0.30;;;;;;;13.73;100.00;100501.53;5054073;28;20453;-70
2021/10/20 04:48:26;;;;;;;0.40;0.30;;;;;;;13.66;100.00;100501.22;5053543;28;20846;-70
2021/10/20 04:50:52;;;;;;;0.40;0.30;;;;;;;13.69;100.00;100489.69;5053941;28;20493;-69
2021/10/20 04:53:18;;;;;;;0.40;0.30;;;;;;;13.68;100.00;100488.09;5053878;28;20449;-70
2021/10/20 04:55:45;;;;;;;0.40;0.30;;;;;;;13.70;100.00;100490.47;5053850;28;20438;-69
2021/10/20 04:58:11;;;;;;;0.40;0.33;;;;;;;13.76;100.00;100491.91;5053433;28;20473;-70
2021/10/20 05:00:38;;;;;;;0.40;0.30;;;;;;;13.79;100.00;100485.81;5053675;28;20482;-70
2021/10/20 05:03:05;;;;;;;0.60;0.30;;;;;;;13.83;100.00;100495.72;5053735;28;20465;-70
2021/10/20 05:05:33;;;;;;;0.40;0.27;;;;;;;13.86;100.00;100491.56;5053601;28;20988;-69
2021/10/20 05:07:59;;;;;;;0.40;0.20;;;;;;;13.85;100.00;100484.50;5053623;28;20453;-70
2021/10/20 05:10:27;;;;;;;0.50;0.40;;;;;;;13.83;100.00;100487.56;5053595;28;20516;-70
2021/10/20 05:12:54;;;;;;;0.40;0.30;;;;;;;13.80;100.00;100481.97;5053268;28;20811;-70
2021/10/20 05:15:21;;;;;;;0.40;0.20;;;;;;;13.79;100.00;100472.19;5053500;28;20446;-70
2021/10/20 05:17:48;;;;;;;0.40;0.30;;;;;;;13.78;100.00;100467.88;5053404;28;20515;-69
2021/10/20 05:20:17;;;;;;;0.40;0.30;;;;;;;13.78;100.00;100455.06;5052502;28;20556;-69
2021/10/20 05:22:45;;;;;;;0.40;0.30;;;;;;;13.78;100.00;100455.06;5053390;28;20446;-69
2021/10/20 05:25:13;;;;;;;0.40;0.30;;;;;;;13.81;100.00;100454.44;5053387;28;20450;-70
2021/10/20 05:27:40;;;;;;;0.40;0.30;;;;;;;13.76;100.00;100454.56;5053260;28;20458;-70
2021/10/20 05:30:08;;;;;;;1.20;1.13;;;;;;;13.77;100.00;100452.69;5054826;28;20445;-70
2021/10/20 05:32:34;;;;;;;0.40;0.30;;;;;;;13.78;100.00;100444.19;5053257;28;20442;-69
2021/10/20 05:35:00;;;;;;;0.40;0.30;;;;;;;13.80;100.00;100438.41;5053195;28;20446;-70
2021/10/20 05:37:27;;;;;;;0.40;0.20;;;;;;;13.78;100.00;100437.94;5053114;28;20492;-69
2021/10/20 05:39:55;;;;;;;0.80;0.80;;;;;;;13.80;100.00;100430.22;5053109;28;20442;-69
2021/10/20 05:42:21;;;;;;;0.40;0.30;;;;;;;13.83;100.00;100430.38;5053166;28;20445;-70
2021/10/20 05:44:48;;;;;;;0.40;0.30;;;;;;;13.88;100.00;100432.13;5053159;28;20811;-69
2021/10/20 05:47:15;;;;;;;0.40;0.20;;;;;;;13.93;100.00;100439.31;5053048;28;20458;-69
2021/10/20 05:49:42;;;;;;;0.40;0.30;;;;;;;13.91;100.00;100427.97;5053069;28;20445;-69
2021/10/20 05:52:08;;;;;;;0.40;0.20;;;;;;;13.96;100.00;100428.56;5053054;28;20496;-69
2021/10/20 05:54:35;;;;;;;0.40;0.20;;;;;;;14.02;100.00;100431.91;5053019;28;20449;-69
2021/10/20 05:57:03;;;;;;;0.40;0.27;;;;;;;14.04;99.84;100435.09;5052980;28;20466;-69
2021/10/20 05:59:29;;;;;;;0.40;0.27;;;;;;;14.06;99.60;100425.47;5052966;28;20438;-70
2021/10/20 06:01:56;;;;;;;0.40;0.27;;;;;;;14.09;98.98;100421.31;5052875;28;20505;-69
2021/10/20 06:04:22;;;;;;;0.40;0.30;;;;;;;14.11;98.73;100419.81;5052936;28;20438;-70
2021/10/20 06:06:49;;;;;;;0.40;0.20;;;;;;;14.12;98.18;100417.91;5052871;28;20469;-69
2021/10/20 06:09:15;;;;;;;1.23;1.17;;;;;;;14.08;98.67;100408.81;5052883;28;20438;-70
2021/10/20 06:11:41;;;;;;;0.40;0.27;;;;;;;14.09;98.47;100416.66;5052888;28;20847;-69
2021/10/20 06:14:09;;;;;;;0.40;0.30;;;;;;;14.12;98.08;100404.28;5052885;28;20508;-70
2021/10/20 06:16:36;;;;;;;0.40;0.30;;;;;;;14.13;97.41;100406.69;5052454;28;20974;-69
2021/10/20 06:19:04;;;;;;;0.40;0.30;;;;;;;14.19;97.42;100412.75;5052557;28;20557;-70
2021/10/20 06:21:30;;;;;;;0.40;0.20;;;;;;;14.19;97.51;100401.84;5052747;28;20832;-69
2021/10/20 06:23:57;;;;;;;0.40;0.30;;;;;;;14.15;97.40;100400.91;5052804;28;20438;-69
2021/10/20 06:26:23;;;;;;;0.40;0.40;;;;;;;14.18;97.25;100402.97;5052444;28;20457;-69
2021/10/20 06:28:50;;;;;;;0.40;0.30;;;;;;;14.17;97.47;100406.84;5052772;28;20845;-69
2021/10/20 06:31:18;;;;;;;0.40;0.30;;;;;;;14.19;97.36;100409.22;5054440;28;20814;-70
2021/10/20 06:33:44;;;;;;;0.40;0.20;;;;;;;14.20;97.05;100411.59;5056650;28;20442;-69
2021/10/20 06:36:19;;;;;;;0.40;0.30;;;;;;;14.24;96.31;100396.19;5056367;28;20442;-70
2021/10/20 06:38:46;;;;;;;0.40;0.30;;;;;;;14.25;96.33;100400.50;5056496;28;20426;-70
2021/10/20 06:41:12;;;;;;;0.40;0.30;;;;;;;14.26;96.16;100404.06;5056241;28;21029;-69
2021/10/20 06:43:39;;;;;;;0.40;0.30;;;;;;;14.26;95.95;100404.84;5056422;28;20453;-70
2021/10/20 06:46:05;;;;;;;0.40;0.30;;;;;;;14.30;95.75;100403.06;5056011;28;21001;-69
2021/10/20 06:48:33;;;;;;;0.40;0.30;;;;;;;14.33;95.52;100399.66;5056286;28;20446;-69
2021/10/20 06:50:59;;;;;;;0.40;0.30;;;;;;;14.39;94.32;100395.63;5056240;28;20560;-69
2021/10/20 06:53:25;;;;;;;0.40;0.20;;;;;;;14.46;94.30;100403.28;5055834;28;21009;-70
2021/10/20 06:55:52;;;;;;;0.40;0.30;;;;;;;14.50;93.88;100403.44;5056112;28;20438;-69
2021/10/20 06:58:18;;;;;;;0.40;0.30;;;;;;;14.51;93.79;100396.84;5055966;28;20466;-69
2021/10/20 07:00:45;;;;;;;0.40;0.30;;;;;;;14.53;93.15;100397.34;5055997;28;20486;-69
2021/10/20 07:03:11;;;;;;;0.40;0.20;;;;;;;14.54;92.91;100404.38;5055973;28;20454;-69
2021/10/20 07:05:39;;;;;;;0.40;0.30;;;;;;;14.59;92.68;100396.00;5055958;28;20449;-69
2021/10/20 07:08:05;;;;;;;0.50;0.40;;;;;;;14.61;92.77;100393.75;5055844;28;20466;-70
2021/10/20 07:10:32;;;;;;;0.40;0.30;;;;;;;14.64;92.16;100387.63;5055842;28;20442;-69
2021/10/20 07:12:58;;;;;;;0.40;0.20;;;;;;;14.67;91.77;100383.44;5055797;28;20442;-69
2021/10/20 07:15:25;;;;;;;0.40;0.20;;;;;;;14.69;91.04;100379.22;5055784;28;20453;-69
2021/10/20 07:17:51;;;;;;;0.40;0.20;;;;;;;14.73;90.72;100373.91;5055235;28;20478;-69
2021/10/20 07:20:18;;;;;;;0.40;0.30;;;;;;;14.74;91.14;100376.31;5055351;28;20838;-69
2021/10/20 07:22:45;;;;;;;0.40;0.30;;;;;;;14.77;90.68;100363.94;5055252;28;20485;-69
2021/10/20 07:25:14;;;;;;;0.40;0.30;;;;;;;14.79;89.77;100362.47;5055571;28;20521;-69
2021/10/20 07:27:42;;;;;;;0.40;0.20;;;;;;;14.89;88.96;100362.06;5055483;28;20466;-69
2021/10/20 07:30:10;;;;;;;0.40;0.30;;;;;;;14.96;89.27;100371.63;5055497;28;20445;-69
2021/10/20 07:32:39;;;;;;;0.40;0.20;;;;;;;15.01;88.05;100379.63;5055371;28;20438;-69
2021/10/20 07:35:06;;;;;;;0.40;0.20;;;;;;;15.06;88.14;100371.22;5055375;28;20452;-69
2021/10/20 07:37:33;;;;;;;0.40;0.20;;;;;;;15.13;87.91;100366.00;5055252;28;20477;-69
2021/10/20 07:40:01;;;;;;;0.40;0.30;;;;;;;15.14;87.71;100362.94;5055335;28;20818;-69
2021/10/20 07:42:27;;;;;;;0.40;0.30;;;;;;;15.18;87.43;100364.97;5054296;28;20512;-69
2021/10/20 07:44:54;;;;;;;0.40;0.20;;;;;;;15.24;85.95;100369.91;5055176;28;20858;-69
2021/10/20 07:47:20;;;;;;;0.40;0.20;;;;;;;15.31;85.78;100366.59;5055063;28;20477;-69
2021/10/20 07:49:47;;;;;;;0.40;0.20;;;;;;;15.37;85.42;100360.59;5054791;28;20468;-69
2021/10/20 07:52:13;;;;;;;0.40;0.20;;;;;;;15.43;85.18;100354.91;5055050;28;20446;-69
2021/10/20 07:54:40;;;;;;;0.40;0.27;;;;;;;15.46;84.92;100346.84;5055024;28;20442;-69
2021/10/20 07:57:08;;;;;;;0.40;0.30;;;;;;;15.60;84.58;100352.78;5054909;28;20489;-69
2021/10/20 07:59:34;;;;;;;0.40;0.30;;;;;;;15.71;83.01;100350.41;5054919;28;20500;-69
2021/10/20 08:02:01;;;;;;;0.40;0.30;;;;;;;15.79;83.67;100348.72;5055033;28;20486;-69
2021/10/20 08:04:27;;;;;;;0.40;0.30;;;;;;;15.88;82.35;100357.59;5054773;28;20443;-69
2021/10/20 08:06:54;;;;;;;0.40;0.20;;;;;;;16.04;82.00;100333.91;5054433;28;20975;-69
2021/10/20 08:09:20;;;;;;;0.40;0.30;;;;;;;16.18;81.70;100330.00;5054793;28;20438;-70
2021/10/20 08:11:47;;;;;;;0.40;0.30;;;;;;;16.30;80.22;100333.50;5054737;28;20702;-69
2021/10/20 08:14:14;;;;;;;0.40;0.30;;;;;;;16.45;78.38;100337.44;5054660;28;20446;-69
2021/10/20 08:16:41;;;;;;;0.40;0.20;;;;;;;16.59;80.14;100324.16;5054564;28;20856;-70
2021/10/20 08:19:07;;;;;;;0.40;0.30;;;;;;;16.73;77.93;100315.59;5054471;28;20511;-69
2021/10/20 08:21:33;;;;;;;0.40;0.30;;;;;;;16.90;78.07;100322.69;5054399;28;20493;-70
2021/10/20 08:24:00;;;;;;;0.40;0.20;;;;;;;17.04;79.52;100325.81;5054475;28;20454;-70
2021/10/20 08:26:26;;;;;;;0.40;0.30;;;;;;;17.16;77.04;100322.22;5054346;28;20458;-70
2021/10/20 08:28:53;;;;;;;0.40;0.20;;;;;;;17.29;76.59;100312.78;5054396;28;20453;-69
2021/10/20 08:31:20;;;;;;;0.40;0.30;;;;;;;17.38;75.17;100310.66;5054327;28;20449;-69
2021/10/20 08:33:47;;;;;;;0.60;0.60;;;;;;;17.50;76.74;100307.03;5053938;28;20802;-69
2021/10/20 08:36:13;;;;;;;0.40;0.20;;;;;;;17.57;75.07;100309.94;5053845;28;20431;-69
2021/10/20 08:38:40;;;;;;;0.40;0.30;;;;;;;17.59;74.45;100306.84;5054155;28;20442;-69
2021/10/20 08:41:07;;;;;;;0.40;0.30;;;;;;;17.56;75.48;100304.81;5054087;28;20852;-70
2021/10/20 08:43:34;;;;;;;0.40;0.30;;;;;;;17.45;74.36;100292.81;5054016;28;20891;-69
2021/10/20 08:46:01;;;;;;;0.40;0.20;;;;;;;17.44;74.68;100283.78;5054049;28;20449;-70
2021/10/20 08:48:30;;;;;;;0.40;0.30;;;;;;;17.50;76.91;100285.13;5053977;28;20449;-70
2021/10/20 08:50:59;;;;;;;0.40;0.20;;;;;;;17.53;74.26;100289.09;5053941;28;20458;-70
2021/10/20 08:53:26;;;;;;;0.40;0.20;;;;;;;17.64;75.41;100277.25;5053870;28;20813;-70
2021/10/20 08:55:53;;;;;;;0.40;0.20;;;;;;;17.70;73.02;100274.22;5053848;28;20450;-70
2021/10/20 08:58:20;;;;;;;0.40;0.20;;;;;;;17.70;72.13;100271.47;5053786;28;20469;-69
2021/10/20 09:00:46;;;;;;;0.40;0.30;;;;;;;17.74;72.68;100270.44;5053832;28;20442;-69
2021/10/20 09:03:13;;;;;;;0.40;0.30;;;;;;;17.76;72.87;100270.88;5053644;28;20489;-70
2021/10/20 09:05:41;;;;;;;0.40;0.30;;;;;;;17.84;72.94;100274.56;5053683;28;20493;-69
2021/10/20 09:08:08;;;;;;;0.40;0.20;;;;;;;17.90;72.29;100262.97;5053624;28;20462;-69
2021/10/20 09:10:35;;;;;;;0.40;0.20;;;;;;;17.95;72.15;100264.63;5053315;28;20450;-69
2021/10/20 09:13:02;;;;;;;0.40;0.30;;;;;;;18.01;72.46;100265.94;5053681;28;20439;-69
2021/10/20 09:15:30;;;;;;;0.50;0.40;;;;;;;18.04;70.60;100262.50;5053680;28;20457;-69
2021/10/20 09:17:58;;;;;;;0.40;0.30;;;;;;;17.98;70.18;100272.16;5053891;28;20458;-69
2021/10/20 09:20:27;;;;;;;0.40;0.30;;;;;;;17.89;70.96;100269.63;5053038;28;20466;-69
2021/10/20 09:22:58;;;;;;;0.40;0.30;;;;;;;17.83;70.16;100260.06;5053358;28;20489;-69
2021/10/20 09:25:27;;;;;;;0.40;0.30;;;;;;;17.81;71.39;100251.44;5053008;28;20456;-69
2021/10/20 09:27:54;;;;;;;0.40;0.30;;;;;;;17.69;71.67;100243.28;5053193;28;20470;-69
2021/10/20 09:30:21;;;;;;;0.40;0.30;;;;;;;17.64;71.30;100236.16;5053285;28;20448;-69
2021/10/20 09:32:50;;;;;;;0.40;0.20;;;;;;;17.61;70.91;100223.16;5053292;28;20466;-69
2021/10/20 09:35:17;;;;;;;0.40;0.20;;;;;;;17.59;70.88;100208.25;5053388;28;20865;-69
2021/10/20 09:37:44;;;;;;;0.40;0.20;;;;;;;17.59;70.39;100213.72;5053399;28;20466;-69
2021/10/20 09:40:15;;;;;;;0.40;0.30;;;;;;;17.56;70.55;100203.47;5052939;28;20430;-69
2021/10/20 09:42:45;;;;;;;0.40;0.30;;;;;;;17.57;69.97;100210.53;5053142;28;20466;-69
2021/10/20 09:45:14;;;;;;;0.40;0.20;;;;;;;17.60;70.50;100209.81;5053131;28;20449;-69
2021/10/20 09:47:41;;;;;;;0.40;0.20;;;;;;;17.60;70.96;100207.09;5053051;28;20502;-69
2021/10/20 09:50:08;;;;;;;1.03;1.00;;;;;;;17.53;72.49;100206.91;5053140;28;20441;-69
2021/10/20 09:52:45;;;;;;;0.40;0.30;;;;;;;17.48;71.63;100207.19;5053132;28;20449;-69
2021/10/20 09:55:16;;;;;;;0.40;0.30;;;;;;;17.45;72.89;100216.16;5053097;28;20449;-69
2021/10/20 09:57:43;;;;;;;0.40;0.20;;;;;;;17.43;72.04;100213.75;5052666;28;20971;-69
2021/10/20 10:00:10;;;;;;;0.40;0.30;;;;;;;17.35;72.45;100201.84;5053033;28;20500;-69
2021/10/20 10:02:37;;;;;;;0.40;0.30;;;;;;;17.35;72.52;100203.78;5052936;28;20478;-69
2021/10/20 10:05:04;;;;;;;0.40;0.30;;;;;;;17.28;72.71;100209.91;5053014;28;20445;-69
2021/10/20 10:07:31;;;;;;;0.40;0.30;;;;;;;17.24;74.04;100213.69;5056827;28;20462;-69
2021/10/20 10:09:58;;;;;;;0.40;0.30;;;;;;;17.20;75.01;100210.88;5057070;28;20480;-70
2021/10/20 10:12:28;;;;;;;0.40;0.27;;;;;;;17.12;76.68;100189.94;5056339;28;20496;-69
2021/10/20 10:14:58;;;;;;;0.40;0.20;;;;;;;17.10;76.48;100175.84;5056934;28;20442;-69
2021/10/20 10:17:25;;;;;;;0.40;0.23;;;;;;;17.15;76.09;100159.94;5056864;28;20465;-69
2021/10/20 10:19:52;;;;;;;0.40;0.30;;;;;;;17.19;75.99;100161.97;5056511;28;20457;-69
2021/10/20 10:22:24;;;;;;;0.40;0.20;;;;;;;17.21;77.14;100179.59;5056675;28;20485;-69
2021/10/20 10:24:50;;;;;;;0.40;0.30;;;;;;;17.20;76.74;100164.34;5056775;28;20449;-69
2021/10/20 10:27:17;;;;;;;0.40;0.30;;;;;;;17.18;78.09;100144.75;5056363;28;20450;-69
2021/10/20 10:29:50;;;;;;;0.40;0.30;;;;;;;17.11;77.13;100128.16;5056697;28;20457;-69
2021/10/20 10:32:20;;;;;;;0.40;0.30;;;;;;;17.19;77.59;100123.66;5056651;28;20445;-69
2021/10/20 10:34:48;;;;;;;0.40;0.30;;;;;;;17.15;77.44;100135.31;5056551;28;20449;-69
2021/10/20 10:37:26;;;;;;;0.40;0.30;;;;;;;17.11;77.41;100126.22;5056118;28;20968;-70
2021/10/20 10:39:52;;;;;;;0.40;0.30;;;;;;;17.10;78.36;100143.00;5056462;28;20433;-69
2021/10/20 10:42:29;;;;;;;0.40;0.30;;;;;;;17.12;78.39;100148.91;5056087;28;20482;-68
2021/10/20 10:45:10;;;;;;;0.40;0.20;;;;;;;17.09;79.35;100122.25;5056294;28;20418;-68
2021/10/20 10:47:36;;;;;;;0.40;0.20;;;;;;;17.09;79.86;100120.31;5055521;28;20877;-70
2021/10/20 10:50:11;;;;;;;0.40;0.30;;;;;;;17.05;78.62;100111.22;5056465;28;20825;-70
2021/10/20 10:52:41;;;;;;;0.40;0.23;;;;;;;17.05;78.84;100102.22;5056256;28;20429;-70
2021/10/20 10:55:13;;;;;;;0.40;0.20;;;;;;;16.95;80.28;100089.06;5055827;28;20453;-71
2021/10/20 10:57:42;;;;;;;0.40;0.30;;;;;;;16.83;79.97;100076.31;5056022;28;20472;-70
2021/10/20 11:00:25;;;;;;;0.40;0.30;;;;;;;16.69;80.79;100068.53;5056039;28;20442;-70
2021/10/20 11:02:54;;;;;;;0.40;0.30;;;;;;;16.61;80.32;100053.91;5055990;28;20493;-69
2021/10/20 11:05:23;;;;;;;0.40;0.30;;;;;;;16.51;80.80;100031.75;5055644;28;20446;-70
2021/10/20 11:07:52;;;;;;;0.40;0.30;;;;;;;16.50;81.81;100013.78;5053871;28;20829;-70
2021/10/20 11:10:19;;;;;;;0.40;0.30;;;;;;;16.57;80.72;100016.69;5054712;28;20438;-70
2021/10/20 11:12:47;;;;;;;0.40;0.30;;;;;;;16.68;80.21;100022.38;5054921;28;20932;-70
2021/10/20 11:15:15;;;;;;;0.40;0.20;;;;;;;16.74;79.79;100010.88;5055459;28;20485;-70
2021/10/20 11:17:42;;;;;;;0.40;0.30;;;;;;;16.90;79.19;100003.38;5054403;28;20462;-70
2021/10/20 11:20:11;;;;;;;0.40;0.30;;;;;;;17.01;78.13;100024.75;5055587;28;20457;-70
2021/10/20 11:22:38;;;;;;;0.40;0.30;;;;;;;17.01;79.66;100000.91;5055207;28;20485;-70